sensor_id;sensor_type;location;lat;lon;timestamp;pressure;altitude;pressure_sealevel;temperature;humidity
5988;BME280;3021;51.000;6.980;2023-02-02T00:01:26;67177.09;;;7.89;100.00
5988;BME280;3021;51.000;6.980;2023-02-02T00:03:52;67173.19;;;7.88;100.00
5988;BME280;3021;51.000;6.980;2023-02-02T00:06:19;67167.84;;;7.81;100.00
5988;BME280;3021;51.000;6.980;2023-02-02T00:08:44;67168.44;;;7.81;100.00
5988;BME280;3021;51.000;6.980;2023-02-02T00:11:10;67164.97;;;7.78;100.00
5988;BME280;3021;51.000;6.980;2023-02-02T00:13:35;67158.63;;;7.72;100.00
5988;BME280;3021;51.000;6.980;2023-02-02T00:19:02;67181.84;;;7.95;100.00
5988;BME280;3021;51.000;6.980;2023-02-02T00:21:28;67188.59;;;7.99;100.00
5988;BME280;3021;51.000;6.980;2023-02-02T00:23:54;67200.13;;;8.09;100.00
5988;BME280;3021;51.000;6.980;2023-02-02T00:26:19;67197.41;;;8.09;100.00
5988;BME280;3021;51.000;6.980;2023-02-02T00:28:45;67194.69;;;8.09;100.00
5988;BME280;3021;51.000;6.980;2023-02-02T00:31:11;67188.19;;;8.01;100.00
5988;BME280;3021;51.000;6.980;2023-02-02T00:33:36;67181.84;;;7.95;100.00
5988;BME280;3021;51.000;6.980;2023-02-02T00:36:02;67184.88;;;8.01;100.00
5988;BME280;3021;51.000;6.980;2023-02-02T00:38:27;67194.53;;;8.07;100.00
5988;BME280;3021;51.000;6.980;2023-02-02T00:40:53;67191.78;;;8.07;100.00
5988;BME280;3021;51.000;6.980;2023-02-02T00:43:19;67190.63;;;8.06;100.00
5988;BME280;3021;51.000;6.980;2023-02-02T00:45:44;67193.94;;;8.06;100.00
5988;BME280;3021;51.000;6.980;2023-02-02T00:48:09;67187.16;;;8.03;100.00
5988;BME280;3021;51.000;6.980;2023-02-02T00:50:35;67188.75;;;8.02;100.00
5988;BME280;3021;51.000;6.980;2023-02-02T00:53:00;67204.16;;;8.13;100.00
5988;BME280;3021;51.000;6.980;2023-02-02T00:55:26;67196.41;;;8.11;100.00
5988;BME280;3021;51.000;6.980;2023-02-02T00:57:52;67185.59;;;8.04;100.00
5988;BME280;3021;51.000;6.980;2023-02-02T01:00:21;67184.28;;;8.00;100.00
5988;BME280;3021;51.000;6.980;2023-02-02T01:02:48;67207.38;;;8.21;100.00
5988;BME280;3021;51.000;6.980;2023-02-02T01:05:14;67186.03;;;8.02;100.00
5988;BME280;3021;51.000;6.980;2023-02-02T01:07:39;67190.50;;;8.03;100.00
5988;BME280;3021;51.000;6.980;2023-02-02T01:10:06;67199.13;;;8.11;100.00
5988;BME280;3021;51.000;6.980;2023-02-02T01:12:33;67196.25;;;8.08;100.00
5988;BME280;3021;51.000;6.980;2023-02-02T01:14:59;67197.56;;;8.12;100.00
5988;BME280;3021;51.000;6.980;2023-02-02T01:17:24;67214.72;;;8.25;100.00
5988;BME280;3021;51.000;6.980;2023-02-02T01:19:50;67202.59;;;8.14;100.00
5988;BME280;3021;51.000;6.980;2023-02-02T01:22:15;67179.38;;;7.91;100.00
5988;BME280;3021;51.000;6.980;2023-02-02T01:24:40;67160.94;;;7.74;100.00
5988;BME280;3021;51.000;6.980;2023-02-02T01:27:05;67153.00;;;7.70;100.00
5988;BME280;3021;51.000;6.980;2023-02-02T01:29:31;67152.28;;;7.67;100.00
5988;BME280;3021;51.000;6.980;2023-02-02T01:31:56;67172.59;;;7.87;100.00
5988;BME280;3021;51.000;6.980;2023-02-02T01:34:22;67179.53;;;7.93;100.00
5988;BME280;3021;51.000;6.980;2023-02-02T01:36:47;67158.06;;;7.72;100.00
5988;BME280;3021;51.000;6.980;2023-02-02T01:39:13;67147.66;;;7.63;100.00
5988;BME280;3021;51.000;6.980;2023-02-02T01:41:40;67137.44;;;7.56;100.00
5988;BME280;3021;51.000;6.980;2023-02-02T01:47:10;67124.03;;;7.41;100.00
5988;BME280;3021;51.000;6.980;2023-02-02T01:49:35;67122.16;;;7.37;100.00
5988;BME280;3021;51.000;6.980;2023-02-02T01:52:03;67104.59;;;7.26;100.00
5988;BME280;3021;51.000;6.980;2023-02-02T01:54:34;67112.09;;;7.33;100.00
5988;BME280;3021;51.000;6.980;2023-02-02T01:57:06;67103.59;;;7.28;100.00
5988;BME280;3021;51.000;6.980;2023-02-02T01:59:33;67098.69;;;7.19;100.00
5988;BME280;3021;51.000;6.980;2023-02-02T02:01:59;67095.38;;;7.18;100.00
5988;BME280;3021;51.000;6.980;2023-02-02T02:04:26;67092.38;;;7.13;100.00
5988;BME280;3021;51.000;6.980;2023-02-02T02:06:53;67089.03;;;7.13;100.00
5988;BME280;3021;51.000;6.980;2023-02-02T02:09:19;67096.09;;;7.21;100.00
5988;BME280;3021;51.000;6.980;2023-02-02T02:11:44;67092.50;;;7.16;100.00
5988;BME280;3021;51.000;6.980;2023-02-02T02:14:10;67094.22;;;7.17;100.00
5988;BME280;3021;51.000;6.980;2023-02-02T02:39:34;67091.78;;;7.13;100.00
5988;BME280;3021;51.000;6.980;2023-02-02T02:42:16;67096.53;;;7.19;100.00
5988;BME280;3021;51.000;6.980;2023-02-02T02:44:43;67099.84;;;7.20;100.00
5988;BME280;3021;51.000;6.980;2023-02-02T02:47:09;67106.91;;;7.29;100.00
5988;BME280;3021;51.000;6.980;2023-02-02T02:49:45;67111.94;;;7.31;100.00
5988;BME280;3021;51.000;6.980;2023-02-02T02:52:11;67109.22;;;7.31;100.00
5988;BME280;3021;51.000;6.980;2023-02-02T02:54:40;67107.50;;;7.29;100.00
5988;BME280;3021;51.000;6.980;2023-02-02T02:57:45;67104.44;;;7.24;100.00
5988;BME280;3021;51.000;6.980;2023-02-02T03:08:19;67094.09;;;7.15;100.00
5988;BME280;3021;51.000;6.980;2023-02-02T03:10:46;67106.75;;;7.26;100.00
5988;BME280;3021;51.000;6.980;2023-02-02T03:13:13;67091.78;;;7.13;100.00
5988;BME280;3021;51.000;6.980;2023-02-02T03:15:45;67085.03;;;7.09;100.00
5988;BME280;3021;51.000;6.980;2023-02-02T03:18:13;67089.03;;;7.13;100.00
5988;BME280;3021;51.000;6.980;2023-02-02T03:20:41;67087.91;;;7.12;100.00
5988;BME280;3021;51.000;6.980;2023-02-02T03:23:07;67091.38;;;7.15;100.00
5988;BME280;3021;51.000;6.980;2023-02-02T03:25:32;67092.38;;;7.13;100.00
5988;BME280;3021;51.000;6.980;2023-02-02T03:27:58;67092.38;;;7.13;100.00
5988;BME280;3021;51.000;6.980;2023-02-02T03:30:24;67092.94;;;7.14;100.00
5988;BME280;3021;51.000;6.980;2023-02-02T03:32:50;67090.19;;;7.14;100.00
5988;BME280;3021;51.000;6.980;2023-02-02T03:35:16;67094.81;;;7.18;100.00
5988;BME280;3021;51.000;6.980;2023-02-02T03:37:42;67079.69;;;7.02;100.00
5988;BME280;3021;51.000;6.980;2023-02-02T03:40:08;67078.25;;;7.05;100.00
5988;BME280;3021;51.000;6.980;2023-02-02T03:42:33;67086.59;;;7.08;100.00
5988;BME280;3021;51.000;6.980;2023-02-02T03:44:58;67092.50;;;7.16;100.00
5988;BME280;3021;51.000;6.980;2023-02-02T03:47:27;67086.16;;;7.10;100.00
5988;BME280;3021;51.000;6.980;2023-02-02T03:49:53;67084.44;;;7.08;100.00
5988;BME280;3021;51.000;6.980;2023-02-02T03:52:19;67092.38;;;7.13;100.00
5988;BME280;3021;51.000;6.980;2023-02-02T03:54:44;67092.94;;;7.14;100.00
5988;BME280;3021;51.000;6.980;2023-02-02T03:57:09;67095.22;;;7.16;100.00
5988;BME280;3021;51.000;6.980;2023-02-02T03:59:34;67088.47;;;7.12;100.00
5988;BME280;3021;51.000;6.980;2023-02-02T04:02:00;67078.53;;;7.01;100.00
5988;BME280;3021;51.000;6.980;2023-02-02T04:04:25;67082.72;;;7.07;100.00
5988;BME280;3021;51.000;6.980;2023-02-02T04:06:50;67079.09;;;7.01;100.00
5988;BME280;3021;51.000;6.980;2023-02-02T04:09:16;67088.75;;;7.07;100.00
5988;BME280;3021;51.000;6.980;2023-02-02T04:11:41;67072.50;;;7.00;100.00
5988;BME280;3021;51.000;6.980;2023-02-02T04:14:06;67075.06;;;6.98;100.00
5988;BME280;3021;51.000;6.980;2023-02-02T04:16:32;67068.31;;;6.94;100.00
5988;BME280;3021;51.000;6.980;2023-02-02T04:18:59;67071.75;;;6.97;100.00
5988;BME280;3021;51.000;6.980;2023-02-02T04:21:25;67075.81;;;7.01;100.00
5988;BME280;3021;51.000;6.980;2023-02-02T04:23:50;67079.69;;;7.02;100.00
5988;BME280;3021;51.000;6.980;2023-02-02T04:26:15;67082.72;;;7.07;100.00
5988;BME280;3021;51.000;6.980;2023-02-02T04:28:41;67081.13;;;7.08;100.00
5988;BME280;3021;51.000;6.980;2023-02-02T04:31:06;67082.72;;;7.07;100.00
5988;BME280;3021;51.000;6.980;2023-02-02T04:33:33;67085.44;;;7.07;100.00
5988;BME280;3021;51.000;6.980;2023-02-02T04:35:58;67091.19;;;7.12;100.00
5988;BME280;3021;51.000;6.980;2023-02-02T04:38:24;67076.81;;;6.99;100.00
5988;BME280;3021;51.000;6.980;2023-02-02T04:40:49;67069.03;;;6.97;100.00
5988;BME280;3021;51.000;6.980;2023-02-02T04:43:15;67076.81;;;6.99;100.00
5988;BME280;3021;51.000;6.980;2023-02-02T04:45:40;67080.81;;;7.03;100.00
5988;BME280;3021;51.000;6.980;2023-02-02T04:48:06;67092.94;;;7.14;100.00
5988;BME280;3021;51.000;6.980;2023-02-02T04:50:31;67096.53;;;7.19;100.00
5988;BME280;3021;51.000;6.980;2023-02-02T04:52:57;67088.31;;;7.09;100.00
5988;BME280;3021;51.000;6.980;2023-02-02T04:55:23;67092.38;;;7.13;100.00
5988;BME280;3021;51.000;6.980;2023-02-02T04:57:48;67097.53;;;7.18;100.00
5988;BME280;3021;51.000;6.980;2023-02-02T05:00:14;67099.84;;;7.20;100.00
5988;BME280;3021;51.000;6.980;2023-02-02T05:02:40;67087.91;;;7.12;100.00
5988;BME280;3021;51.000;6.980;2023-02-02T05:05:09;67091.78;;;7.13;100.00
5988;BME280;3021;51.000;6.980;2023-02-02T05:07:35;67083.44;;;7.10;100.00
5988;BME280;3021;51.000;6.980;2023-02-02T05:10:02;67088.31;;;7.09;100.00
5988;BME280;3021;51.000;6.980;2023-02-02T05:12:28;67071.34;;;6.99;100.00
5988;BME280;3021;51.000;6.980;2023-02-02T05:14:53;67076.81;;;6.99;100.00
5988;BME280;3021;51.000;6.980;2023-02-02T05:17:18;67081.72;;;7.08;100.00
5988;BME280;3021;51.000;6.980;2023-02-02T05:19:44;67080.25;;;7.02;100.00
5988;BME280;3021;51.000;6.980;2023-02-02T05:22:09;67078.69;;;7.03;100.00
5988;BME280;3021;51.000;6.980;2023-02-02T05:24:34;67084.44;;;7.08;100.00
5988;BME280;3021;51.000;6.980;2023-02-02T05:26:59;67093.66;;;7.17;100.00
5988;BME280;3021;51.000;6.980;2023-02-02T05:29:26;67093.09;;;7.16;100.00
5988;BME280;3021;51.000;6.980;2023-02-02T05:31:52;67091.19;;;7.12;100.00
5988;BME280;3021;51.000;6.980;2023-02-02T05:34:17;67079.25;;;7.04;100.00
5988;BME280;3021;51.000;6.980;2023-02-02T05:36:43;67101.72;;;7.24;100.00
5988;BME280;3021;51.000;6.980;2023-02-02T05:39:08;67094.81;;;7.18;100.00
5988;BME280;3021;51.000;6.980;2023-02-02T05:41:34;67102.88;;;7.25;100.00
5988;BME280;3021;51.000;6.980;2023-02-02T05:44:00;67091.50;;;7.17;100.00
5988;BME280;3021;51.000;6.980;2023-02-02T05:46:25;67087.31;;;7.11;100.00
5988;BME280;3021;51.000;6.980;2023-02-02T05:48:50;67091.38;;;7.15;100.00
5988;BME280;3021;51.000;6.980;2023-02-02T05:51:22;67087.47;;;7.14;100.00
5988;BME280;3021;51.000;6.980;2023-02-02T05:53:49;67093.25;;;7.19;100.00
5988;BME280;3021;51.000;6.980;2023-02-02T05:56:15;67084.44;;;7.08;100.00
5988;BME280;3021;51.000;6.980;2023-02-02T05:58:41;67090.78;;;7.14;100.00
5988;BME280;3021;51.000;6.980;2023-02-02T06:01:06;67093.66;;;7.17;100.00
5988;BME280;3021;51.000;6.980;2023-02-02T06:03:32;67095.22;;;7.16;100.00
5988;BME280;3021;51.000;6.980;2023-02-02T06:05:58;67088.47;;;7.12;100.00
5988;BME280;3021;51.000;6.980;2023-02-02T06:08:23;67095.97;;;7.19;100.00
5988;BME280;3021;51.000;6.980;2023-02-02T06:10:48;67088.31;;;7.09;100.00
5988;BME280;3021;51.000;6.980;2023-02-02T06:13:14;67085.44;;;7.07;100.00
5988;BME280;3021;51.000;6.980;2023-02-02T06:15:39;67090.19;;;7.14;100.00
5988;BME280;3021;51.000;6.980;2023-02-02T06:18:07;67094.81;;;7.18;100.00
5988;BME280;3021;51.000;6.980;2023-02-02T06:20:32;67092.50;;;7.16;100.00
5988;BME280;3021;51.000;6.980;2023-02-02T06:22:58;67081.41;;;7.03;100.00
5988;BME280;3021;51.000;6.980;2023-02-02T06:25:23;67078.09;;;7.03;100.00
5988;BME280;3021;51.000;6.980;2023-02-02T06:27:48;67088.47;;;7.12;100.00
5988;BME280;3021;51.000;6.980;2023-02-02T06:30:14;67087.47;;;7.14;100.00
5988;BME280;3021;51.000;6.980;2023-02-02T06:32:40;67100.56;;;7.23;100.00
5988;BME280;3021;51.000;6.980;2023-02-02T06:35:06;67109.78;;;7.31;100.00
5988;BME280;3021;51.000;6.980;2023-02-02T06:37:31;67093.09;;;7.16;100.00
5988;BME280;3021;51.000;6.980;2023-02-02T06:39:58;67104.59;;;7.26;100.00
5988;BME280;3021;51.000;6.980;2023-02-02T06:42:23;67075.97;;;7.03;100.00
5988;BME280;3021;51.000;6.980;2023-02-02T06:44:49;67102.16;;;7.22;100.00
5988;BME280;3021;51.000;6.980;2023-02-02T06:47:14;67094.81;;;7.18;100.00
5988;BME280;3021;51.000;6.980;2023-02-02T06:49:39;67105.75;;;7.28;100.00
5988;BME280;3021;51.000;6.980;2023-02-02T06:52:06;67104.75;;;7.29;100.00
5988;BME280;3021;51.000;6.980;2023-02-02T06:54:31;67110.78;;;7.30;100.00
5988;BME280;3021;51.000;6.980;2023-02-02T06:56:57;67110.94;;;7.32;100.00
5988;BME280;3021;51.000;6.980;2023-02-02T06:59:22;67122.06;;;7.44;100.00
5988;BME280;3021;51.000;6.980;2023-02-02T07:01:48;67107.50;;;7.29;100.00
5988;BME280;3021;51.000;6.980;2023-02-02T07:04:16;67117.69;;;7.36;100.00
5988;BME280;3021;51.000;6.980;2023-02-02T07:06:42;67123.19;;;7.46;100.00
5988;BME280;3021;51.000;6.980;2023-02-02T07:09:07;67124.19;;;7.44;100.00
5988;BME280;3021;51.000;6.980;2023-02-02T07:11:32;67116.56;;;7.35;100.00
5988;BME280;3021;51.000;6.980;2023-02-02T07:13:59;67112.81;;;7.36;100.00
5988;BME280;3021;51.000;6.980;2023-02-02T07:16:25;67108.63;;;7.30;100.00
5988;BME280;3021;51.000;6.980;2023-02-02T07:18:50;67112.81;;;7.36;100.00
5988;BME280;3021;51.000;6.980;2023-02-02T07:21:21;67109.22;;;7.31;100.00
5988;BME280;3021;51.000;6.980;2023-02-02T07:23:47;67125.75;;;7.43;100.00
5988;BME280;3021;51.000;6.980;2023-02-02T07:26:13;67115.97;;;7.34;100.00
5988;BME280;3021;51.000;6.980;2023-02-02T07:28:39;67111.09;;;7.35;100.00
5988;BME280;3021;51.000;6.980;2023-02-02T07:33:37;67125.50;;;7.48;100.00
5988;BME280;3021;51.000;6.980;2023-02-02T07:36:05;67134.56;;;7.53;100.00
5988;BME280;3021;51.000;6.980;2023-02-02T07:38:30;67132.25;;;7.51;100.00
5988;BME280;3021;51.000;6.980;2023-02-02T07:40:59;67138.59;;;7.57;100.00
5988;BME280;3021;51.000;6.980;2023-02-02T07:43:25;67137.44;;;7.56;100.00
5988;BME280;3021;51.000;6.980;2023-02-02T07:45:50;67125.19;;;7.42;100.00
5988;BME280;3021;51.000;6.980;2023-02-02T07:48:15;67133.84;;;7.50;100.00
5988;BME280;3021;51.000;6.980;2023-02-02T07:50:41;67128.09;;;7.45;100.00
5988;BME280;3021;51.000;6.980;2023-02-02T07:53:06;67135.00;;;7.51;100.00
5988;BME280;3021;51.000;6.980;2023-02-02T07:55:31;67136.72;;;7.53;100.00
5988;BME280;3021;51.000;6.980;2023-02-02T07:57:56;67132.09;;;7.49;100.00
5988;BME280;3021;51.000;6.980;2023-02-02T08:00:23;67131.69;;;7.51;100.00
5988;BME280;3021;51.000;6.980;2023-02-02T08:02:49;67114.00;;;7.37;100.00
5988;BME280;3021;51.000;6.980;2023-02-02T08:05:15;67125.91;;;7.46;100.00
5988;BME280;3021;51.000;6.980;2023-02-02T08:07:41;67141.06;;;7.61;100.00
5988;BME280;3021;51.000;6.980;2023-02-02T08:10:07;67137.03;;;7.58;100.00
5988;BME280;3021;51.000;6.980;2023-02-02T08:12:32;67130.38;;;7.47;100.00
5988;BME280;3021;51.000;6.980;2023-02-02T08:14:57;67135.56;;;7.52;100.00
5988;BME280;3021;51.000;6.980;2023-02-02T08:17:23;67149.56;;;7.67;100.00
5988;BME280;3021;51.000;6.980;2023-02-02T08:19:48;67155.91;;;7.72;100.00
5988;BME280;3021;51.000;6.980;2023-02-02T08:22:14;67151.72;;;7.66;100.00
5988;BME280;3021;51.000;6.980;2023-02-02T08:24:39;67155.31;;;7.72;100.00
5988;BME280;3021;51.000;6.980;2023-02-02T08:27:07;67136.31;;;7.55;100.00
5988;BME280;3021;51.000;6.980;2023-02-02T08:29:33;67132.25;;;7.51;100.00
5988;BME280;3021;51.000;6.980;2023-02-02T08:31:59;67127.66;;;7.47;100.00
5988;BME280;3021;51.000;6.980;2023-02-02T08:34:24;67134.72;;;7.56;100.00
5988;BME280;3021;51.000;6.980;2023-02-02T08:36:50;67141.91;;;7.57;100.00
5988;BME280;3021;51.000;6.980;2023-02-02T08:39:15;67137.44;;;7.56;100.00
5988;BME280;3021;51.000;6.980;2023-02-02T08:41:40;67127.06;;;7.47;100.00
5988;BME280;3021;51.000;6.980;2023-02-02T08:44:07;67138.44;;;7.54;100.00
5988;BME280;3021;51.000;6.980;2023-02-02T08:46:33;67128.81;;;7.48;100.00
5988;BME280;3021;51.000;6.980;2023-02-02T08:48:59;67128.97;;;7.51;100.00
5988;BME280;3021;51.000;6.980;2023-02-02T08:51:24;67113.84;;;7.35;100.00
5988;BME280;3021;51.000;6.980;2023-02-02T08:53:49;67121.91;;;7.42;100.00
5988;BME280;3021;51.000;6.980;2023-02-02T08:56:17;67126.91;;;7.44;100.00
5988;BME280;3021;51.000;6.980;2023-02-02T08:58:44;67131.84;;;7.53;100.00
5988;BME280;3021;51.000;6.980;2023-02-02T09:01:14;67130.53;;;7.50;100.00
5988;BME280;3021;51.000;6.980;2023-02-02T09:03:41;67132.41;;;7.54;100.00
5988;BME280;3021;51.000;6.980;2023-02-02T09:06:11;67145.94;;;7.61;100.00
5988;BME280;3021;51.000;6.980;2023-02-02T09:08:37;67143.06;;;7.58;100.00
5988;BME280;3021;51.000;6.980;2023-02-02T09:11:10;67148.25;;;7.63;100.00
5988;BME280;3021;51.000;6.980;2023-02-02T09:13:38;67141.50;;;7.59;100.00
5988;BME280;3021;51.000;6.980;2023-02-02T09:16:05;67144.38;;;7.62;100.00
5988;BME280;3021;51.000;6.980;2023-02-02T09:18:31;67139.19;;;7.57;100.00
5988;BME280;3021;51.000;6.980;2023-02-02T09:21:02;67148.41;;;7.66;100.00
5988;BME280;3021;51.000;6.980;2023-02-02T09:23:29;67150.00;;;7.65;100.00
5988;BME280;3021;51.000;6.980;2023-02-02T09:25:55;67157.06;;;7.73;100.00
5988;BME280;3021;51.000;6.980;2023-02-02T09:28:20;67171.31;;;7.84;100.00
5988;BME280;3021;51.000;6.980;2023-02-02T09:30:45;67158.34;;;7.77;100.00
5988;BME280;3021;51.000;6.980;2023-02-02T09:33:11;67174.50;;;7.91;100.00
5988;BME280;3021;51.000;6.980;2023-02-02T09:35:36;67160.06;;;7.78;100.00
5988;BME280;3021;51.000;6.980;2023-02-02T09:38:01;67143.22;;;7.61;100.00
5988;BME280;3021;51.000;6.980;2023-02-02T09:40:30;67137.59;;;7.58;100.00
5988;BME280;3021;51.000;6.980;2023-02-02T09:43:13;67151.28;;;7.68;100.00
5988;BME280;3021;51.000;6.980;2023-02-02T09:48:51;67145.66;;;7.66;100.00
5988;BME280;3021;51.000;6.980;2023-02-02T09:51:22;67145.53;;;7.63;100.00
5988;BME280;3021;51.000;6.980;2023-02-02T09:53:53;67137.03;;;7.58;100.00
5988;BME280;3021;51.000;6.980;2023-02-02T09:56:28;67143.22;;;7.61;100.00
5988;BME280;3021;51.000;6.980;2023-02-02T09:58:59;67152.44;;;7.69;100.00
5988;BME280;3021;51.000;6.980;2023-02-02T10:01:37;67157.63;;;7.74;100.00
5988;BME280;3021;51.000;6.980;2023-02-02T10:04:16;67174.75;;;7.87;100.00
5988;BME280;3021;51.000;6.980;2023-02-02T10:06:46;67170.88;;;7.86;100.00
5988;BME280;3021;51.000;6.980;2023-02-02T10:14:43;67147.25;;;7.65;100.00
5988;BME280;3021;51.000;6.980;2023-02-02T10:19:56;67155.91;;;7.72;100.00
5988;BME280;3021;51.000;6.980;2023-02-02T10:22:28;67154.75;;;7.71;100.00
5988;BME280;3021;51.000;6.980;2023-02-02T10:24:57;67154.00;;;7.68;100.00
5988;BME280;3021;51.000;6.980;2023-02-02T10:27:37;67161.81;;;7.80;100.00
5988;BME280;3021;51.000;6.980;2023-02-02T10:30:10;67158.19;;;7.74;100.00
5988;BME280;3021;51.000;6.980;2023-02-02T10:38:12;67149.56;;;7.67;100.00
5988;BME280;3021;51.000;6.980;2023-02-02T10:41:01;67155.75;;;7.70;100.00
5988;BME280;3021;51.000;6.980;2023-02-02T10:49:35;67173.19;;;7.88;100.00
5988;BME280;3021;51.000;6.980;2023-02-02T11:02:35;67216.44;;;8.26;100.00
5988;BME280;3021;51.000;6.980;2023-02-02T11:05:00;67227.41;;;8.36;100.00
5988;BME280;3021;51.000;6.980;2023-02-02T11:07:44;67213.72;;;8.26;100.00
5988;BME280;3021;51.000;6.980;2023-02-02T11:10:09;67238.38;;;8.46;100.00
5988;BME280;3021;51.000;6.980;2023-02-02T11:12:40;67245.44;;;8.55;100.00
5988;BME280;3021;51.000;6.980;2023-02-02T11:15:21;67238.38;;;8.46;100.00
5988;BME280;3021;51.000;6.980;2023-02-02T11:17:47;67242.97;;;8.50;100.00
5988;BME280;3021;51.000;6.980;2023-02-02T11:20:33;67252.81;;;8.59;100.00
5988;BME280;3021;51.000;6.980;2023-02-02T11:23:01;67244.88;;;8.54;100.00
5988;BME280;3021;51.000;6.980;2023-02-02T11:25:35;67248.75;;;8.55;100.00
5988;BME280;3021;51.000;6.980;2023-02-02T11:28:12;67259.88;;;8.68;100.00
5988;BME280;3021;51.000;6.980;2023-02-02T11:30:45;67259.00;;;8.62;100.00
5988;BME280;3021;51.000;6.980;2023-02-02T11:33:30;67257.41;;;8.63;100.00
5988;BME280;3021;51.000;6.980;2023-02-02T11:38:27;67259.88;;;8.68;100.00
5988;BME280;3021;51.000;6.980;2023-02-02T11:43:27;67263.63;;;8.66;100.00
5988;BME280;3021;51.000;6.980;2023-02-02T11:45:59;67270.84;;;8.77;100.00
5988;BME280;3021;51.000;6.980;2023-02-02T11:48:32;67258.56;;;8.64;100.00
5988;BME280;3021;51.000;6.980;2023-02-02T11:50:59;67273.56;;;8.77;100.00
5988;BME280;3021;51.000;6.980;2023-02-02T11:53:45;67287.56;;;8.92;100.00
5988;BME280;3021;51.000;6.980;2023-02-02T11:56:20;67297.22;;;8.98;100.00
5988;BME280;3021;51.000;6.980;2023-02-02T11:58:49;67298.94;;;9.00;100.00
5988;BME280;3021;51.000;6.980;2023-02-02T12:03:58;67332.56;;;9.32;100.00
5988;BME280;3021;51.000;6.980;2023-02-02T12:06:35;67324.94;;;9.23;100.00
5988;BME280;3021;51.000;6.980;2023-02-02T12:09:09;67332.56;;;9.32;100.00
5988;BME280;3021;51.000;6.980;2023-02-02T12:17:33;67373.97;;;9.67;100.00
5988;BME280;3021;51.000;6.980;2023-02-02T12:49:47;67427.84;;;10.17;100.00
5988;BME280;3021;51.000;6.980;2023-02-02T12:55:22;67467.00;;;10.50;100.00
5988;BME280;3021;51.000;6.980;2023-02-02T12:58:04;67451.53;;;10.38;100.00
5988;BME280;3021;51.000;6.980;2023-02-02T13:00:56;67464.69;;;10.48;100.00
5988;BME280;3021;51.000;6.980;2023-02-02T13:03:38;67462.53;;;10.48;100.00
5988;BME280;3021;51.000;6.980;2023-02-02T13:09:05;67439.41;;;10.28;100.00
5988;BME280;3021;51.000;6.980;2023-02-02T13:14:30;67466.59;;;10.52;100.00
5988;BME280;3021;51.000;6.980;2023-02-02T13:17:08;67439.97;;;10.28;100.00
5988;BME280;3021;51.000;6.980;2023-02-02T13:19:44;67454.03;;;10.43;100.00
5988;BME280;3021;51.000;6.980;2023-02-02T13:22:15;67494.88;;;10.77;100.00
5988;BME280;3021;51.000;6.980;2023-02-02T13:24:43;67476.41;;;10.61;100.00
5988;BME280;3021;51.000;6.980;2023-02-02T13:27:14;67474.06;;;10.59;100.00
5988;BME280;3021;51.000;6.980;2023-02-02T13:29:46;67444.44;;;10.30;100.00
5988;BME280;3021;51.000;6.980;2023-02-02T13:32:36;67467.16;;;10.52;100.00
5988;BME280;3021;51.000;6.980;2023-02-02T13:35:03;67466.44;;;10.49;100.00
5988;BME280;3021;51.000;6.980;2023-02-02T13:37:38;67449.97;;;10.40;100.00
5988;BME280;3021;51.000;6.980;2023-02-02T13:40:23;67431.16;;;10.18;100.00
5988;BME280;3021;51.000;6.980;2023-02-02T13:42:56;67444.28;;;10.27;100.00
5988;BME280;3021;51.000;6.980;2023-02-02T13:51:41;67395.38;;;9.86;100.00
5988;BME280;3021;51.000;6.980;2023-02-02T13:57:18;67382.50;;;9.72;100.00
5988;BME280;3021;51.000;6.980;2023-02-02T14:00:03;67363.59;;;9.58;100.00
5988;BME280;3021;51.000;6.980;2023-02-02T14:03:34;67364.16;;;9.58;100.00
5988;BME280;3021;51.000;6.980;2023-02-02T14:05:40;67362.00;;;9.59;100.00
5988;BME280;3021;51.000;6.980;2023-02-02T14:08:17;67374.72;;;9.70;100.00
5988;BME280;3021;51.000;6.980;2023-02-02T14:10:56;67376.44;;;9.72;100.00
5988;BME280;3021;51.000;6.980;2023-02-02T14:13:25;67390.03;;;9.79;100.00
5988;BME280;3021;51.000;6.980;2023-02-02T14:16:22;67376.31;;;9.69;100.00
5988;BME280;3021;51.000;6.980;2023-02-02T14:26:42;67409.38;;;10.01;100.00
5988;BME280;3021;51.000;6.980;2023-02-02T14:34:48;67386.84;;;9.81;100.00
5988;BME280;3021;51.000;6.980;2023-02-02T14:47:54;67412.09;;;10.01;100.00
5988;BME280;3021;51.000;6.980;2023-02-02T14:50:26;67412.09;;;10.01;100.00
5988;BME280;3021;51.000;6.980;2023-02-02T14:53:05;67409.94;;;10.01;100.00
5988;BME280;3021;51.000;6.980;2023-02-02T14:58:44;67361.28;;;9.56;100.00
5988;BME280;3021;51.000;6.980;2023-02-02T15:01:21;67344.13;;;9.43;100.00
5988;BME280;3021;51.000;6.980;2023-02-02T15:06:33;67353.19;;;9.48;100.00
5988;BME280;3021;51.000;6.980;2023-02-02T15:20:11;67348.72;;;9.47;100.00
5988;BME280;3021;51.000;6.980;2023-02-02T15:22:44;67350.47;;;9.48;100.00
5988;BME280;3021;51.000;6.980;2023-02-02T15:27:50;67357.25;;;9.52;100.00
5988;BME280;3021;51.000;6.980;2023-02-02T15:30:17;67360.88;;;9.58;100.00
5988;BME280;3021;51.000;6.980;2023-02-02T15:32:43;67372.97;;;9.68;100.00
5988;BME280;3021;51.000;6.980;2023-02-02T15:35:29;67368.94;;;9.65;100.00
5988;BME280;3021;51.000;6.980;2023-02-02T15:37:59;67358.25;;;9.50;100.00
5988;BME280;3021;51.000;6.980;2023-02-02T15:40:27;67334.31;;;9.34;100.00
5988;BME280;3021;51.000;6.980;2023-02-02T15:42:58;67342.22;;;9.39;100.00
5988;BME280;3021;51.000;6.980;2023-02-02T15:48:24;67351.06;;;9.49;100.00
5988;BME280;3021;51.000;6.980;2023-02-02T15:50:54;67365.91;;;9.60;100.00
5988;BME280;3021;51.000;6.980;2023-02-02T15:55:54;67372.84;;;9.66;100.00
5988;BME280;3021;51.000;6.980;2023-02-02T15:58:26;67368.34;;;9.64;100.00
5988;BME280;3021;51.000;6.980;2023-02-02T16:01:01;67362.00;;;9.59;100.00
5988;BME280;3021;51.000;6.980;2023-02-02T16:03:40;67377.88;;;9.68;100.00
5988;BME280;3021;51.000;6.980;2023-02-02T16:06:07;67358.41;;;9.53;100.00
5988;BME280;3021;51.000;6.980;2023-02-02T16:08:35;67353.78;;;9.49;100.00
5988;BME280;3021;51.000;6.980;2023-02-02T16:11:14;67351.63;;;9.49;100.00
5988;BME280;3021;51.000;6.980;2023-02-02T16:13:43;67349.31;;;9.47;100.00
5988;BME280;3021;51.000;6.980;2023-02-02T16:16:25;67350.47;;;9.48;100.00
5988;BME280;3021;51.000;6.980;2023-02-02T16:19:24;67348.72;;;9.47;100.00
5988;BME280;3021;51.000;6.980;2023-02-02T16:22:01;67364.59;;;9.56;100.00
5988;BME280;3021;51.000;6.980;2023-02-02T16:24:29;67348.16;;;9.46;100.00
5988;BME280;3021;51.000;6.980;2023-02-02T16:27:01;67359.56;;;9.54;100.00
5988;BME280;3021;51.000;6.980;2023-02-02T16:29:29;67344.41;;;9.38;100.00
5988;BME280;3021;51.000;6.980;2023-02-02T16:31:55;67354.34;;;9.49;100.00
5988;BME280;3021;51.000;6.980;2023-02-02T16:39:31;67355.53;;;9.50;100.00